sensor_id;sensor_type;location;lat;lon;timestamp;temperature;humidity
61374;DHT22;47242;48.158;-1.586;2023-06-26T04:31:14;17.80;68.90
61374;DHT22;47242;48.158;-1.586;2023-06-26T04:33:39;17.80;68.40
61374;DHT22;47242;48.158;-1.586;2023-06-26T04:36:05;17.80;69.00
61374;DHT22;47242;48.158;-1.586;2023-06-26T04:38:32;17.80;68.60
61374;DHT22;47242;48.158;-1.586;2023-06-26T04:40:59;17.80;68.80
61374;DHT22;47242;48.158;-1.586;2023-06-26T04:43:25;17.80;69.10
61374;DHT22;47242;48.158;-1.586;2023-06-26T04:45:50;17.80;68.80
61374;DHT22;47242;48.158;-1.586;2023-06-26T04:48:16;17.90;68.80
61374;DHT22;47242;48.158;-1.586;2023-06-26T04:50:42;17.90;69.20
61374;DHT22;47242;48.158;-1.586;2023-06-26T04:53:08;17.90;68.70
61374;DHT22;47242;48.158;-1.586;2023-06-26T04:55:33;17.80;69.00
61374;DHT22;47242;48.158;-1.586;2023-06-26T04:57:59;17.90;68.60
61374;DHT22;47242;48.158;-1.586;2023-06-26T05:00:25;18.00;68.40
61374;DHT22;47242;48.158;-1.586;2023-06-26T05:02:51;18.00;68.60
61374;DHT22;47242;48.158;-1.586;2023-06-26T05:05:28;18.00;68.10
61374;DHT22;47242;48.158;-1.586;2023-06-26T05:07:55;18.00;68.60
61374;DHT22;47242;48.158;-1.586;2023-06-26T05:10:21;18.00;68.20
61374;DHT22;47242;48.158;-1.586;2023-06-26T05:12:47;18.00;68.00
61374;DHT22;47242;48.158;-1.586;2023-06-26T05:15:12;18.00;68.60
61374;DHT22;47242;48.158;-1.586;2023-06-26T05:17:38;18.00;68.50
61374;DHT22;47242;48.158;-1.586;2023-06-26T05:20:04;18.00;68.30
61374;DHT22;47242;48.158;-1.586;2023-06-26T05:22:32;18.10;68.10
61374;DHT22;47242;48.158;-1.586;2023-06-26T05:24:59;18.10;68.40
61374;DHT22;47242;48.158;-1.586;2023-06-26T05:27:26;18.10;68.60
61374;DHT22;47242;48.158;-1.586;2023-06-26T05:29:52;18.10;68.90
61374;DHT22;47242;48.158;-1.586;2023-06-26T05:32:18;18.10;68.70
61374;DHT22;47242;48.158;-1.586;2023-06-26T05:34:54;18.10;68.70
61374;DHT22;47242;48.158;-1.586;2023-06-26T05:37:21;18.20;69.00
61374;DHT22;47242;48.158;-1.586;2023-06-26T05:39:48;18.20;69.00
61374;DHT22;47242;48.158;-1.586;2023-06-26T05:42:14;18.20;69.00
61374;DHT22;47242;48.158;-1.586;2023-06-26T05:44:40;18.20;68.80
61374;DHT22;47242;48.158;-1.586;2023-06-26T05:47:06;18.20;68.70
61374;DHT22;47242;48.158;-1.586;2023-06-26T05:49:31;18.30;68.70
61374;DHT22;47242;48.158;-1.586;2023-06-26T05:51:57;18.30;68.70
61374;DHT22;47242;48.158;-1.586;2023-06-26T05:54:24;18.30;68.90
61374;DHT22;47242;48.158;-1.586;2023-06-26T05:56:56;18.30;68.90
61374;DHT22;47242;48.158;-1.586;2023-06-26T05:59:22;18.30;68.80
61374;DHT22;47242;48.158;-1.586;2023-06-26T06:01:48;18.40;68.50
61374;DHT22;47242;48.158;-1.586;2023-06-26T06:04:13;18.40;68.40
61374;DHT22;47242;48.158;-1.586;2023-06-26T06:06:39;18.50;68.60
61374;DHT22;47242;48.158;-1.586;2023-06-26T06:09:05;18.60;68.50
61374;DHT22;47242;48.158;-1.586;2023-06-26T06:11:31;18.70;68.40
61374;DHT22;47242;48.158;-1.586;2023-06-26T06:13:57;18.70;68.60
61374;DHT22;47242;48.158;-1.586;2023-06-26T06:16:25;18.70;68.50
61374;DHT22;47242;48.158;-1.586;2023-06-26T06:18:50;18.80;67.60
61374;DHT22;47242;48.158;-1.586;2023-06-26T06:21:16;18.80;68.20
61374;DHT22;47242;48.158;-1.586;2023-06-26T06:23:42;18.80;68.30
61374;DHT22;47242;48.158;-1.586;2023-06-26T06:26:07;18.80;68.00
61374;DHT22;47242;48.158;-1.586;2023-06-26T06:28:33;18.90;67.90
61374;DHT22;47242;48.158;-1.586;2023-06-26T06:30:59;19.00;68.00
61374;DHT22;47242;48.158;-1.586;2023-06-26T06:33:24;18.90;67.80
61374;DHT22;47242;48.158;-1.586;2023-06-26T06:35:50;19.00;67.70
61374;DHT22;47242;48.158;-1.586;2023-06-26T06:38:15;19.10;67.60
61374;DHT22;47242;48.158;-1.586;2023-06-26T06:40:41;19.20;67.10
61374;DHT22;47242;48.158;-1.586;2023-06-26T06:43:07;19.20;67.40
61374;DHT22;47242;48.158;-1.586;2023-06-26T06:45:32;19.20;66.60
61374;DHT22;47242;48.158;-1.586;2023-06-26T06:47:58;19.30;66.60
61374;DHT22;47242;48.158;-1.586;2023-06-26T06:50:23;19.40;66.60
61374;DHT22;47242;48.158;-1.586;2023-06-26T06:52:49;19.40;66.80
61374;DHT22;47242;48.158;-1.586;2023-06-26T06:55:15;19.50;66.30
61374;DHT22;47242;48.158;-1.586;2023-06-26T06:57:40;19.60;66.30
61374;DHT22;47242;48.158;-1.586;2023-06-26T07:00:11;19.70;65.70
61374;DHT22;47242;48.158;-1.586;2023-06-26T07:02:42;19.70;65.40
61374;DHT22;47242;48.158;-1.586;2023-06-26T07:05:09;19.80;64.90
61374;DHT22;47242;48.158;-1.586;2023-06-26T07:07:36;19.80;64.90
61374;DHT22;47242;48.158;-1.586;2023-06-26T07:10:07;19.80;64.50
61374;DHT22;47242;48.158;-1.586;2023-06-26T07:12:33;20.00;63.70
61374;DHT22;47242;48.158;-1.586;2023-06-26T07:15:00;20.10;64.10
61374;DHT22;47242;48.158;-1.586;2023-06-26T07:17:26;20.30;63.80
61374;DHT22;47242;48.158;-1.586;2023-06-26T07:19:52;20.30;63.70
61374;DHT22;47242;48.158;-1.586;2023-06-26T07:22:18;20.30;63.80
61374;DHT22;47242;48.158;-1.586;2023-06-26T07:24:46;20.40;63.40
61374;DHT22;47242;48.158;-1.586;2023-06-26T07:27:16;20.60;63.10
61374;DHT22;47242;48.158;-1.586;2023-06-26T07:29:43;20.80;62.10
61374;DHT22;47242;48.158;-1.586;2023-06-26T07:32:09;20.80;61.90
61374;DHT22;47242;48.158;-1.586;2023-06-26T07:34:35;20.90;61.60
61374;DHT22;47242;48.158;-1.586;2023-06-26T07:37:00;21.10;59.80
61374;DHT22;47242;48.158;-1.586;2023-06-26T07:39:26;21.30;59.90
61374;DHT22;47242;48.158;-1.586;2023-06-26T07:41:52;21.50;59.10
61374;DHT22;47242;48.158;-1.586;2023-06-26T07:44:20;21.90;57.90
61374;DHT22;47242;48.158;-1.586;2023-06-26T07:46:45;22.30;56.10
61374;DHT22;47242;48.158;-1.586;2023-06-26T07:49:13;23.00;54.10
61374;DHT22;47242;48.158;-1.586;2023-06-26T07:51:39;24.50;51.50
61374;DHT22;47242;48.158;-1.586;2023-06-26T07:54:04;26.30;47.30
61374;DHT22;47242;48.158;-1.586;2023-06-26T07:56:30;28.50;43.20
61374;DHT22;47242;48.158;-1.586;2023-06-26T07:58:56;30.00;38.50
61374;DHT22;47242;48.158;-1.586;2023-06-26T08:01:24;30.20;37.80
61374;DHT22;47242;48.158;-1.586;2023-06-26T08:03:49;32.00;35.60
61374;DHT22;47242;48.158;-1.586;2023-06-26T08:06:15;33.20;32.80
61374;DHT22;47242;48.158;-1.586;2023-06-26T08:08:41;34.00;31.80
61374;DHT22;47242;48.158;-1.586;2023-06-26T08:11:06;34.40;30.90
61374;DHT22;47242;48.158;-1.586;2023-06-26T08:13:32;33.90;30.30
61374;DHT22;47242;48.158;-1.586;2023-06-26T08:15:57;33.50;30.60
61374;DHT22;47242;48.158;-1.586;2023-06-26T08:18:26;32.70;32.10
61374;DHT22;47242;48.158;-1.586;2023-06-26T08:20:55;32.80;33.10
61374;DHT22;47242;48.158;-1.586;2023-06-26T08:23:20;34.30;31.30
61374;DHT22;47242;48.158;-1.586;2023-06-26T08:25:47;35.30;29.20
61374;DHT22;47242;48.158;-1.586;2023-06-26T08:28:13;36.10;28.60
61374;DHT22;47242;48.158;-1.586;2023-06-26T08:30:38;36.70;27.30
61374;DHT22;47242;48.158;-1.586;2023-06-26T08:33:04;36.70;27.60
61374;DHT22;47242;48.158;-1.586;2023-06-26T08:35:29;36.10;27.60
61374;DHT22;47242;48.158;-1.586;2023-06-26T08:37:55;36.50;27.40
61374;DHT22;47242;48.158;-1.586;2023-06-26T08:40:21;36.00;28.20
61374;DHT22;47242;48.158;-1.586;2023-06-26T08:42:47;34.40;28.80
61374;DHT22;47242;48.158;-1.586;2023-06-26T08:45:12;32.40;31.00
61374;DHT22;47242;48.158;-1.586;2023-06-26T08:47:41;31.90;32.30
61374;DHT22;47242;48.158;-1.586;2023-06-26T08:50:14;33.00;31.20
61374;DHT22;47242;48.158;-1.586;2023-06-26T08:55:43;33.70;29.30
61374;DHT22;47242;48.158;-1.586;2023-06-26T08:58:10;34.60;28.80
61374;DHT22;47242;48.158;-1.586;2023-06-26T09:00:38;35.30;27.70
61374;DHT22;47242;48.158;-1.586;2023-06-26T09:03:04;35.80;27.60
61374;DHT22;47242;48.158;-1.586;2023-06-26T09:05:30;36.00;27.20
61374;DHT22;47242;48.158;-1.586;2023-06-26T09:07:59;34.80;27.90
61374;DHT22;47242;48.158;-1.586;2023-06-26T09:10:25;34.60;28.50
61374;DHT22;47242;48.158;-1.586;2023-06-26T09:12:50;34.90;27.30
61374;DHT22;47242;48.158;-1.586;2023-06-26T09:15:19;35.50;27.30
61374;DHT22;47242;48.158;-1.586;2023-06-26T09:17:45;36.10;26.90
61374;DHT22;47242;48.158;-1.586;2023-06-26T09:20:12;35.80;26.40
61374;DHT22;47242;48.158;-1.586;2023-06-26T09:22:41;35.00;27.50
61374;DHT22;47242;48.158;-1.586;2023-06-26T09:25:07;34.30;28.20
61374;DHT22;47242;48.158;-1.586;2023-06-26T09:27:35;33.20;29.40
61374;DHT22;47242;48.158;-1.586;2023-06-26T09:30:05;32.20;30.40
61374;DHT22;47242;48.158;-1.586;2023-06-26T09:32:37;30.90;32.20
61374;DHT22;47242;48.158;-1.586;2023-06-26T09:35:03;30.20;33.50
61374;DHT22;47242;48.158;-1.586;2023-06-26T09:37:29;29.70;34.30
61374;DHT22;47242;48.158;-1.586;2023-06-26T09:39:55;31.30;32.40
61374;DHT22;47242;48.158;-1.586;2023-06-26T09:42:21;32.70;30.30
61374;DHT22;47242;48.158;-1.586;2023-06-26T09:44:48;33.70;28.20
61374;DHT22;47242;48.158;-1.586;2023-06-26T09:47:18;34.40;26.60
61374;DHT22;47242;48.158;-1.586;2023-06-26T09:49:44;34.20;28.10
61374;DHT22;47242;48.158;-1.586;2023-06-26T09:52:13;33.00;28.90
61374;DHT22;47242;48.158;-1.586;2023-06-26T09:54:40;32.70;29.10
61374;DHT22;47242;48.158;-1.586;2023-06-26T09:57:09;33.30;29.80
61374;DHT22;47242;48.158;-1.586;2023-06-26T09:59:36;34.10;28.70
61374;DHT22;47242;48.158;-1.586;2023-06-26T10:02:02;34.80;28.60
61374;DHT22;47242;48.158;-1.586;2023-06-26T10:04:28;35.40;27.70
61374;DHT22;47242;48.158;-1.586;2023-06-26T10:06:58;35.90;26.60
61374;DHT22;47242;48.158;-1.586;2023-06-26T10:09:27;36.10;26.40
61374;DHT22;47242;48.158;-1.586;2023-06-26T10:11:55;35.80;26.50
61374;DHT22;47242;48.158;-1.586;2023-06-26T10:14:22;35.20;27.00
61374;DHT22;47242;48.158;-1.586;2023-06-26T10:16:50;34.30;27.10
61374;DHT22;47242;48.158;-1.586;2023-06-26T10:19:19;33.60;27.30
61374;DHT22;47242;48.158;-1.586;2023-06-26T10:21:54;32.40;28.90
61374;DHT22;47242;48.158;-1.586;2023-06-26T10:24:23;31.80;30.60
61374;DHT22;47242;48.158;-1.586;2023-06-26T10:26:52;32.30;30.30
61374;DHT22;47242;48.158;-1.586;2023-06-26T10:29:22;32.80;30.00
61374;DHT22;47242;48.158;-1.586;2023-06-26T10:31:51;33.20;28.30
61374;DHT22;47242;48.158;-1.586;2023-06-26T10:34:18;33.60;28.00
61374;DHT22;47242;48.158;-1.586;2023-06-26T10:36:44;33.80;27.90
61374;DHT22;47242;48.158;-1.586;2023-06-26T10:39:10;33.60;28.50
61374;DHT22;47242;48.158;-1.586;2023-06-26T10:41:42;32.90;29.20
61374;DHT22;47242;48.158;-1.586;2023-06-26T10:44:13;32.80;29.10
61374;DHT22;47242;48.158;-1.586;2023-06-26T10:46:49;31.80;29.60
61374;DHT22;47242;48.158;-1.586;2023-06-26T10:49:16;31.30;30.60
61374;DHT22;47242;48.158;-1.586;2023-06-26T10:51:49;31.30;30.50
61374;DHT22;47242;48.158;-1.586;2023-06-26T10:54:17;31.20;31.10
61374;DHT22;47242;48.158;-1.586;2023-06-26T10:56:48;31.00;31.70
61374;DHT22;47242;48.158;-1.586;2023-06-26T10:59:21;30.60;31.60
61374;DHT22;47242;48.158;-1.586;2023-06-26T11:02:00;30.30;32.10
61374;DHT22;47242;48.158;-1.586;2023-06-26T11:04:55;30.00;33.00
61374;DHT22;47242;48.158;-1.586;2023-06-26T11:07:26;29.60;33.60
61374;DHT22;47242;48.158;-1.586;2023-06-26T11:12:37;29.50;33.90
61374;DHT22;47242;48.158;-1.586;2023-06-26T11:15:13;29.70;34.10
61374;DHT22;47242;48.158;-1.586;2023-06-26T11:17:40;29.80;34.90
61374;DHT22;47242;48.158;-1.586;2023-06-26T11:20:11;29.80;34.00
61374;DHT22;47242;48.158;-1.586;2023-06-26T11:22:38;29.80;35.30
61374;DHT22;47242;48.158;-1.586;2023-06-26T11:25:05;29.80;34.60
61374;DHT22;47242;48.158;-1.586;2023-06-26T11:30:05;29.80;35.20
61374;DHT22;47242;48.158;-1.586;2023-06-26T11:32:31;29.50;32.30
61374;DHT22;47242;48.158;-1.586;2023-06-26T11:34:58;29.40;34.20
61374;DHT22;47242;48.158;-1.586;2023-06-26T11:37:24;29.40;34.60
61374;DHT22;47242;48.158;-1.586;2023-06-26T11:39:50;29.40;34.50
61374;DHT22;47242;48.158;-1.586;2023-06-26T11:42:17;29.50;34.10
61374;DHT22;47242;48.158;-1.586;2023-06-26T11:44:43;29.50;33.70
61374;DHT22;47242;48.158;-1.586;2023-06-26T11:47:14;29.60;33.70
61374;DHT22;47242;48.158;-1.586;2023-06-26T11:49:43;29.50;34.90
61374;DHT22;47242;48.158;-1.586;2023-06-26T11:52:08;29.60;32.60
61374;DHT22;47242;48.158;-1.586;2023-06-26T11:54:34;29.70;32.80
61374;DHT22;47242;48.158;-1.586;2023-06-26T11:57:00;29.40;33.60
61374;DHT22;47242;48.158;-1.586;2023-06-26T11:59:40;29.20;35.20
61374;DHT22;47242;48.158;-1.586;2023-06-26T12:02:10;29.30;35.50
61374;DHT22;47242;48.158;-1.586;2023-06-26T12:04:37;29.30;35.20
61374;DHT22;47242;48.158;-1.586;2023-06-26T12:07:05;29.10;34.40
61374;DHT22;47242;48.158;-1.586;2023-06-26T12:09:34;29.00;33.80
61374;DHT22;47242;48.158;-1.586;2023-06-26T12:12:04;29.00;34.70
61374;DHT22;47242;48.158;-1.586;2023-06-26T12:14:30;29.10;33.20
61374;DHT22;47242;48.158;-1.586;2023-06-26T12:17:04;29.10;34.10
61374;DHT22;47242;48.158;-1.586;2023-06-26T12:19:30;29.30;33.00
61374;DHT22;47242;48.158;-1.586;2023-06-26T12:21:55;29.60;33.70
61374;DHT22;47242;48.158;-1.586;2023-06-26T12:24:23;29.80;31.50
61374;DHT22;47242;48.158;-1.586;2023-06-26T12:26:53;29.50;32.20
61374;DHT22;47242;48.158;-1.586;2023-06-26T12:29:20;29.30;32.60
61374;DHT22;47242;48.158;-1.586;2023-06-26T12:31:51;29.30;34.00
61374;DHT22;47242;48.158;-1.586;2023-06-26T12:34:19;29.10;33.70
61374;DHT22;47242;48.158;-1.586;2023-06-26T12:36:50;28.70;34.40
61374;DHT22;47242;48.158;-1.586;2023-06-26T12:39:20;28.70;34.00
61374;DHT22;47242;48.158;-1.586;2023-06-26T12:41:52;28.60;34.00
61374;DHT22;47242;48.158;-1.586;2023-06-26T12:44:29;28.60;33.10
61374;DHT22;47242;48.158;-1.586;2023-06-26T12:46:57;28.80;33.40
61374;DHT22;47242;48.158;-1.586;2023-06-26T12:51:58;28.90;33.10
61374;DHT22;47242;48.158;-1.586;2023-06-26T12:54:24;28.80;33.20
61374;DHT22;47242;48.158;-1.586;2023-06-26T12:56:51;28.70;33.40
61374;DHT22;47242;48.158;-1.586;2023-06-26T12:59:16;28.80;33.80
61374;DHT22;47242;48.158;-1.586;2023-06-26T13:01:42;28.80;33.30
61374;DHT22;47242;48.158;-1.586;2023-06-26T13:04:07;29.00;33.90
61374;DHT22;47242;48.158;-1.586;2023-06-26T13:06:34;29.10;32.90
61374;DHT22;47242;48.158;-1.586;2023-06-26T13:08:59;28.70;33.20
61374;DHT22;47242;48.158;-1.586;2023-06-26T13:11:25;28.80;33.20
61374;DHT22;47242;48.158;-1.586;2023-06-26T13:13:50;28.80;34.50
61374;DHT22;47242;48.158;-1.586;2023-06-26T13:16:16;28.90;32.50
61374;DHT22;47242;48.158;-1.586;2023-06-26T13:18:44;28.90;33.30
61374;DHT22;47242;48.158;-1.586;2023-06-26T13:21:09;28.90;33.50
61374;DHT22;47242;48.158;-1.586;2023-06-26T13:23:35;29.00;32.40
61374;DHT22;47242;48.158;-1.586;2023-06-26T13:26:00;29.20;32.50
61374;DHT22;47242;48.158;-1.586;2023-06-26T13:28:26;29.30;32.00
61374;DHT22;47242;48.158;-1.586;2023-06-26T13:30:52;29.30;32.70
61374;DHT22;47242;48.158;-1.586;2023-06-26T13:33:17;29.20;32.20
61374;DHT22;47242;48.158;-1.586;2023-06-26T13:35:43;29.10;33.10
61374;DHT22;47242;48.158;-1.586;2023-06-26T13:38:08;29.00;31.70
61374;DHT22;47242;48.158;-1.586;2023-06-26T13:40:34;28.90;32.10
61374;DHT22;47242;48.158;-1.586;2023-06-26T13:42:59;29.00;32.70
61374;DHT22;47242;48.158;-1.586;2023-06-26T13:45:25;29.10;33.30
61374;DHT22;47242;48.158;-1.586;2023-06-26T13:47:51;28.90;33.00
61374;DHT22;47242;48.158;-1.586;2023-06-26T13:50:16;29.00;32.70
61374;DHT22;47242;48.158;-1.586;2023-06-26T13:52:42;29.20;32.50
61374;DHT22;47242;48.158;-1.586;2023-06-26T13:55:08;29.20;33.30
61374;DHT22;47242;48.158;-1.586;2023-06-26T13:57:33;29.20;32.70
61374;DHT22;47242;48.158;-1.586;2023-06-26T13:59:59;28.90;32.30
61374;DHT22;47242;48.158;-1.586;2023-06-26T14:02:25;28.80;33.20
61374;DHT22;47242;48.158;-1.586;2023-06-26T14:04:51;28.80;33.20
61374;DHT22;47242;48.158;-1.586;2023-06-26T14:07:17;28.90;34.20
61374;DHT22;47242;48.158;-1.586;2023-06-26T14:09:43;28.80;33.10
61374;DHT22;47242;48.158;-1.586;2023-06-26T14:12:08;28.80;33.40
61374;DHT22;47242;48.158;-1.586;2023-06-26T14:14:34;28.60;33.20
61374;DHT22;47242;48.158;-1.586;2023-06-26T14:17:00;28.40;34.30
61374;DHT22;47242;48.158;-1.586;2023-06-26T14:19:25;28.30;34.80
61374;DHT22;47242;48.158;-1.586;2023-06-26T14:21:51;28.10;34.30
61374;DHT22;47242;48.158;-1.586;2023-06-26T14:24:17;28.10;33.70
61374;DHT22;47242;48.158;-1.586;2023-06-26T14:26:42;28.10;34.20
61374;DHT22;47242;48.158;-1.586;2023-06-26T14:29:08;28.30;34.10
61374;DHT22;47242;48.158;-1.586;2023-06-26T14:31:34;28.30;35.00
61374;DHT22;47242;48.158;-1.586;2023-06-26T14:33:59;28.40;35.10
61374;DHT22;47242;48.158;-1.586;2023-06-26T14:36:25;28.30;34.20
61374;DHT22;47242;48.158;-1.586;2023-06-26T14:38:52;28.40;34.40
61374;DHT22;47242;48.158;-1.586;2023-06-26T14:41:18;28.40;34.20
61374;DHT22;47242;48.158;-1.586;2023-06-26T14:43:43;28.30;34.30
61374;DHT22;47242;48.158;-1.586;2023-06-26T14:46:11;28.20;33.20
61374;DHT22;47242;48.158;-1.586;2023-06-26T14:48:36;28.10;34.70
61374;DHT22;47242;48.158;-1.586;2023-06-26T14:51:02;28.30;35.00
61374;DHT22;47242;48.158;-1.586;2023-06-26T14:53:28;28.30;34.30
61374;DHT22;47242;48.158;-1.586;2023-06-26T14:55:53;28.50;34.20
61374;DHT22;47242;48.158;-1.586;2023-06-26T14:58:19;28.70;34.20
61374;DHT22;47242;48.158;-1.586;2023-06-26T15:00:45;28.80;33.20
61374;DHT22;47242;48.158;-1.586;2023-06-26T15:03:11;28.90;33.90
61374;DHT22;47242;48.158;-1.586;2023-06-26T15:05:36;28.60;34.20
61374;DHT22;47242;48.158;-1.586;2023-06-26T15:08:02;28.30;34.60
61374;DHT22;47242;48.158;-1.586;2023-06-26T15:10:28;28.30;34.50
61374;DHT22;47242;48.158;-1.586;2023-06-26T15:12:53;28.30;35.00
61374;DHT22;47242;48.158;-1.586;2023-06-26T15:15:19;28.30;34.90
61374;DHT22;47242;48.158;-1.586;2023-06-26T15:17:45;28.10;35.50
61374;DHT22;47242;48.158;-1.586;2023-06-26T15:20:10;28.20;34.70
61374;DHT22;47242;48.158;-1.586;2023-06-26T15:22:36;28.20;35.20
61374;DHT22;47242;48.158;-1.586;2023-06-26T15:25:02;28.20;35.30
61374;DHT22;47242;48.158;-1.586;2023-06-26T15:27:28;28.30;35.20
61374;DHT22;47242;48.158;-1.586;2023-06-26T15:29:53;28.30;36.00
61374;DHT22;47242;48.158;-1.586;2023-06-26T15:32:19;28.00;35.90
61374;DHT22;47242;48.158;-1.586;2023-06-26T15:34:45;27.80;37.00
61374;DHT22;47242;48.158;-1.586;2023-06-26T15:37:12;27.70;37.30
61374;DHT22;47242;48.158;-1.586;2023-06-26T15:39:38;27.40;37.40
61374;DHT22;47242;48.158;-1.586;2023-06-26T15:42:05;27.20;38.10
61374;DHT22;47242;48.158;-1.586;2023-06-26T15:44:31;27.20;38.40
61374;DHT22;47242;48.158;-1.586;2023-06-26T15:46:58;27.20;37.30
61374;DHT22;47242;48.158;-1.586;2023-06-26T15:49:24;27.20;37.80
61374;DHT22;47242;48.158;-1.586;2023-06-26T15:51:50;27.20;38.50
61374;DHT22;47242;48.158;-1.586;2023-06-26T15:54:15;27.20;38.10
61374;DHT22;47242;48.158;-1.586;2023-06-26T15:56:41;27.20;37.90
61374;DHT22;47242;48.158;-1.586;2023-06-26T15:59:07;27.20;38.30
61374;DHT22;47242;48.158;-1.586;2023-06-26T16:01:32;27.00;38.90
61374;DHT22;47242;48.158;-1.586;2023-06-26T16:03:58;26.80;37.10
61374;DHT22;47242;48.158;-1.586;2023-06-26T16:06:24;26.60;39.20
61374;DHT22;47242;48.158;-1.586;2023-06-26T16:08:49;26.50;39.20
61374;DHT22;47242;48.158;-1.586;2023-06-26T16:11:17;26.30;39.20
61374;DHT22;47242;48.158;-1.586;2023-06-26T16:13:43;26.20;39.80
61374;DHT22;47242;48.158;-1.586;2023-06-26T16:16:09;26.00;39.00
61374;DHT22;47242;48.158;-1.586;2023-06-26T16:18:35;25.80;40.20
61374;DHT22;47242;48.158;-1.586;2023-06-26T16:21:01;25.80;40.50
61374;DHT22;47242;48.158;-1.586;2023-06-26T16:23:26;25.80;41.50
61374;DHT22;47242;48.158;-1.586;2023-06-26T16:25:52;25.80;41.20
61374;DHT22;47242;48.158;-1.586;2023-06-26T16:28:17;25.80;40.70
61374;DHT22;47242;48.158;-1.586;2023-06-26T16:30:44;25.70;41.30
61374;DHT22;47242;48.158;-1.586;2023-06-26T16:33:10;25.50;40.80
61374;DHT22;47242;48.158;-1.586;2023-06-26T16:35:36;25.30;41.70
61374;DHT22;47242;48.158;-1.586;2023-06-26T16:38:03;25.50;41.80
61374;DHT22;47242;48.158;-1.586;2023-06-26T16:40:29;25.60;41.70
61374;DHT22;47242;48.158;-1.586;2023-06-26T16:42:56;25.70;41.30
61374;DHT22;47242;48.158;-1.586;2023-06-26T16:45:22;25.60;41.30
61374;DHT22;47242;48.158;-1.586;2023-06-26T16:47:48;25.50;41.60
61374;DHT22;47242;48.158;-1.586;2023-06-26T16:50:13;25.50;41.30
61374;DHT22;47242;48.158;-1.586;2023-06-26T16:52:39;25.40;40.70
61374;DHT22;47242;48.158;-1.586;2023-06-26T16:55:08;25.30;41.30
61374;DHT22;47242;48.158;-1.586;2023-06-26T16:57:33;25.20;41.80
61374;DHT22;47242;48.158;-1.586;2023-06-26T16:59:59;25.10;40.80
61374;DHT22;47242;48.158;-1.586;2023-06-26T17:02:25;24.90;41.00
61374;DHT22;47242;48.158;-1.586;2023-06-26T17:04:52;24.90;41.60
61374;DHT22;47242;48.158;-1.586;2023-06-26T17:07:17;25.00;41.90
61374;DHT22;47242;48.158;-1.586;2023-06-26T17:09:44;25.10;41.10
61374;DHT22;47242;48.158;-1.586;2023-06-26T17:12:10;25.10;41.20
61374;DHT22;47242;48.158;-1.586;2023-06-26T17:14:36;25.30;40.70
61374;DHT22;47242;48.158;-1.586;2023-06-26T17:17:02;25.40;40.10
61374;DHT22;47242;48.158;-1.586;2023-06-26T17:19:28;25.50;40.30
61374;DHT22;47242;48.158;-1.586;2023-06-26T17:21:53;25.60;40.40
61374;DHT22;47242;48.158;-1.586;2023-06-26T17:24:19;25.60;40.60
61374;DHT22;47242;48.158;-1.586;2023-06-26T17:26:45;25.50;40.80
61374;DHT22;47242;48.158;-1.586;2023-06-26T17:29:11;25.60;41.10
61374;DHT22;47242;48.158;-1.586;2023-06-26T17:31:36;25.60;42.00
61374;DHT22;47242;48.158;-1.586;2023-06-26T17:34:02;25.60;41.30
61374;DHT22;47242;48.158;-1.586;2023-06-26T17:36:28;25.60;41.40
61374;DHT22;47242;48.158;-1.586;2023-06-26T17:38:54;25.40;41.20
61374;DHT22;47242;48.158;-1.586;2023-06-26T17:41:20;25.30;41.30
61374;DHT22;47242;48.158;-1.586;2023-06-26T17:43:45;25.20;41.80
61374;DHT22;47242;48.158;-1.586;2023-06-26T17:46:11;25.30;42.10
61374;DHT22;47242;48.158;-1.586;2023-06-26T17:48:36;25.30;42.50
61374;DHT22;47242;48.158;-1.586;2023-06-26T17:51:02;25.20;42.60
61374;DHT22;47242;48.158;-1.586;2023-06-26T17:53:29;25.30;42.30
61374;DHT22;47242;48.158;-1.586;2023-06-26T17:55:55;25.20;42.60
61374;DHT22;47242;48.158;-1.586;2023-06-26T17:58:23;25.20;42.70
61374;DHT22;47242;48.158;-1.586;2023-06-26T18:00:48;25.20;42.80
61374;DHT22;47242;48.158;-1.586;2023-06-26T18:03:14;24.90;42.80
61374;DHT22;47242;48.158;-1.586;2023-06-26T18:05:40;24.90;42.40
61374;DHT22;47242;48.158;-1.586;2023-06-26T18:08:05;24.80;42.40
61374;DHT22;47242;48.158;-1.586;2023-06-26T18:10:31;24.80;42.60
61374;DHT22;47242;48.158;-1.586;2023-06-26T18:12:57;24.70;42.60
61374;DHT22;47242;48.158;-1.586;2023-06-26T18:15:23;24.60;43.10
61374;DHT22;47242;48.158;-1.586;2023-06-26T18:17:48;24.60;43.50
61374;DHT22;47242;48.158;-1.586;2023-06-26T18:20:14;24.60;43.20
61374;DHT22;47242;48.158;-1.586;2023-06-26T18:22:40;24.40;43.40
61374;DHT22;47242;48.158;-1.586;2023-06-26T18:25:06;24.30;43.60
61374;DHT22;47242;48.158;-1.586;2023-06-26T18:27:35;24.30;43.40
61374;DHT22;47242;48.158;-1.586;2023-06-26T18:30:01;24.30;43.20
61374;DHT22;47242;48.158;-1.586;2023-06-26T18:32:27;24.30;43.20
61374;DHT22;47242;48.158;-1.586;2023-06-26T18:34:53;24.30;43.00
61374;DHT22;47242;48.158;-1.586;2023-06-26T18:37:18;24.10;43.50
61374;DHT22;47242;48.158;-1.586;2023-06-26T18:39:44;24.10;42.90
61374;DHT22;47242;48.158;-1.586;2023-06-26T18:42:11;24.00;43.20
61374;DHT22;47242;48.158;-1.586;2023-06-26T18:44:36;24.00;43.30
61374;DHT22;47242;48.158;-1.586;2023-06-26T18:47:02;23.90;43.50
61374;DHT22;47242;48.158;-1.586;2023-06-26T18:49:28;23.90;44.00
61374;DHT22;47242;48.158;-1.586;2023-06-26T18:51:54;23.90;44.00
61374;DHT22;47242;48.158;-1.586;2023-06-26T18:54:21;23.90;44.00
61374;DHT22;47242;48.158;-1.586;2023-06-26T18:56:47;23.80;44.50
61374;DHT22;47242;48.158;-1.586;2023-06-26T18:59:13;23.70;44.70
61374;DHT22;47242;48.158;-1.586;2023-06-26T19:01:39;23.60;44.70
61374;DHT22;47242;48.158;-1.586;2023-06-26T19:04:05;23.50;45.40
61374;DHT22;47242;48.158;-1.586;2023-06-26T19:06:31;23.50;45.40
61374;DHT22;47242;48.158;-1.586;2023-06-26T19:08:57;23.30;45.90
61374;DHT22;47242;48.158;-1.586;2023-06-26T19:11:23;23.30;45.90
61374;DHT22;47242;48.158;-1.586;2023-06-26T19:13:48;23.30;45.90
61374;DHT22;47242;48.158;-1.586;2023-06-26T19:16:14;23.30;46.30
61374;DHT22;47242;48.158;-1.586;2023-06-26T19:18:40;23.20;46.70
61374;DHT22;47242;48.158;-1.586;2023-06-26T19:21:06;23.10;47.30
61374;DHT22;47242;48.158;-1.586;2023-06-26T19:23:32;22.90;47.30
61374;DHT22;47242;48.158;-1.586;2023-06-26T19:25:57;23.00;47.40
61374;DHT22;47242;48.158;-1.586;2023-06-26T19:28:25;22.90;47.60
61374;DHT22;47242;48.158;-1.586;2023-06-26T19:30:51;22.80;48.00
61374;DHT22;47242;48.158;-1.586;2023-06-26T19:33:16;22.80;48.20
61374;DHT22;47242;48.158;-1.586;2023-06-26T19:35:42;22.70;48.70
61374;DHT22;47242;48.158;-1.586;2023-06-26T19:38:08;22.60;48.60
61374;DHT22;47242;48.158;-1.586;2023-06-26T19:40:35;22.50;49.00
61374;DHT22;47242;48.158;-1.586;2023-06-26T19:43:02;22.50;49.00
61374;DHT22;47242;48.158;-1.586;2023-06-26T19:45:28;22.40;49.30
61374;DHT22;47242;48.158;-1.586;2023-06-26T19:47:54;22.30;49.80
61374;DHT22;47242;48.158;-1.586;2023-06-26T19:50:20;22.30;49.80
61374;DHT22;47242;48.158;-1.586;2023-06-26T19:52:46;22.20;49.80